createdAt,value
2023-04-02T00:00:29.610Z,81.45
2023-04-02T00:01:39.330Z,81.53
2023-04-02T00:02:57.071Z,81.55
2023-04-02T00:04:03.415Z,81.60
2023-04-02T00:05:18.442Z,81.54
2023-04-02T00:06:30.019Z,81.54
2023-04-02T00:07:32.204Z,81.50
2023-04-02T00:08:39.472Z,81.52
2023-04-02T00:09:42.532Z,81.53
2023-04-02T00:10:51.220Z,81.46
2023-04-02T00:11:54.267Z,81.41
2023-04-02T00:13:01.682Z,81.41
2023-04-02T00:14:07.593Z,81.38
2023-04-02T00:15:11.988Z,81.36
2023-04-02T00:16:18.928Z,81.40
2023-04-02T00:17:24.514Z,81.42
2023-04-02T00:18:27.154Z,81.46
2023-04-02T00:19:39.163Z,81.55
2023-04-02T00:21:58.620Z,81.42
2023-04-02T00:23:03.042Z,81.52
2023-04-02T00:24:11.910Z,81.47
2023-04-02T00:25:14.633Z,81.52
2023-04-02T00:26:22.546Z,81.44
2023-04-02T00:27:24.998Z,81.37
2023-04-02T00:28:27.054Z,81.37
2023-04-02T00:29:30.082Z,81.42
2023-04-02T00:30:32.186Z,81.43
2023-04-02T00:31:38.369Z,81.47
2023-04-02T00:32:42.140Z,81.41
2023-04-02T00:33:45.357Z,81.37
2023-04-02T00:34:49.271Z,81.43
2023-04-02T00:35:54.283Z,81.45
2023-04-02T00:36:58.259Z,81.45
2023-04-02T00:38:01.721Z,81.49
2023-04-02T00:39:08.494Z,81.56
2023-04-02T00:40:17.967Z,81.59
2023-04-02T00:41:23.678Z,81.68
2023-04-02T00:42:27.802Z,81.74
2023-04-02T00:43:36.354Z,81.71
2023-04-02T00:44:41.993Z,81.64
2023-04-02T00:45:46.876Z,81.58
2023-04-02T00:46:50.696Z,81.55
2023-04-02T00:47:53.219Z,81.56
2023-04-02T00:50:34.855Z,81.52
2023-04-02T00:52:56.958Z,81.45
2023-04-02T00:54:02.986Z,81.42
2023-04-02T00:55:14.923Z,81.38
2023-04-02T00:56:20.962Z,81.37
2023-04-02T00:57:25.561Z,81.27
2023-04-02T00:58:32.083Z,81.25
2023-04-02T00:59:37.686Z,81.29
2023-04-02T01:00:40.159Z,81.39
2023-04-02T01:01:43.890Z,81.40
2023-04-02T01:03:06.631Z,81.37
2023-04-02T01:05:26.958Z,81.43
2023-04-02T01:06:36.051Z,81.54
2023-04-02T01:07:59.801Z,81.53
2023-04-02T01:09:27.606Z,81.58
2023-04-02T01:10:39.258Z,81.53
2023-04-02T01:11:45.163Z,81.42
2023-04-02T01:13:20.763Z,81.40
2023-04-02T01:15:58.878Z,81.35
2023-04-02T01:18:51.017Z,81.49
2023-04-02T01:20:28.856Z,81.49
2023-04-02T01:21:53.085Z,81.43
2023-04-02T01:23:05.552Z,81.42
2023-04-02T01:24:13.382Z,81.43
2023-04-02T01:25:19.301Z,81.36
2023-04-02T01:26:30.927Z,81.31
2023-04-02T01:27:49.133Z,81.35
2023-04-02T01:29:06.852Z,81.40
2023-04-02T01:30:11.085Z,81.35
2023-04-02T01:31:15.696Z,81.34
2023-04-02T01:32:20.978Z,81.49
2023-04-02T01:33:28.087Z,81.47
2023-04-02T01:34:31.267Z,81.45
2023-04-02T01:35:37.326Z,81.43
2023-04-02T01:36:55.355Z,81.44
2023-04-02T01:39:40.687Z,81.47
2023-04-02T01:40:55.472Z,81.53
2023-04-02T01:42:01.389Z,81.50
2023-04-02T01:43:13.725Z,81.44
2023-04-02T01:45:30.122Z,81.34
2023-04-02T01:46:35.239Z,81.38
2023-04-02T01:47:39.011Z,81.43
2023-04-02T01:50:00.207Z,81.33
2023-04-02T01:51:06.210Z,81.31
2023-04-02T01:52:10.799Z,81.30
2023-04-02T01:53:15.977Z,81.36
2023-04-02T01:54:19.489Z,81.39
2023-04-02T01:55:43.868Z,81.41
2023-04-02T01:56:47.224Z,81.40
2023-04-02T01:57:52.997Z,81.42
2023-04-02T01:58:59.144Z,81.49
2023-04-02T02:00:04.727Z,81.54
2023-04-02T02:01:18.718Z,81.53
2023-04-02T02:02:22.520Z,81.55
2023-04-02T02:03:25.739Z,81.62
2023-04-02T02:04:28.877Z,81.65
2023-04-02T02:05:32.062Z,81.68
2023-04-02T02:06:35.119Z,81.75
2023-04-02T02:07:38.275Z,81.78
2023-04-02T02:09:02.492Z,81.80
2023-04-02T02:10:06.282Z,81.77
2023-04-02T02:11:12.050Z,81.68
2023-04-02T02:12:15.367Z,81.67
2023-04-02T02:13:17.900Z,81.65
2023-04-02T02:14:23.118Z,81.69
2023-04-02T02:15:27.137Z,81.64
2023-04-02T02:16:30.278Z,81.65
2023-04-02T02:17:33.108Z,81.77
2023-04-02T02:18:35.754Z,81.80
2023-04-02T02:19:40.847Z,81.78
2023-04-02T02:20:43.918Z,81.83
2023-04-02T02:23:03.010Z,81.91
2023-04-02T02:24:09.443Z,82.06
2023-04-02T02:25:17.980Z,82.12
2023-04-02T02:26:23.829Z,82.17
2023-04-02T02:27:30.771Z,82.22
2023-04-02T02:28:38.448Z,82.24
2023-04-02T02:29:42.388Z,82.17
2023-04-02T02:30:48.464Z,82.11
2023-04-02T02:31:53.754Z,82.07
2023-04-02T02:33:12.160Z,82.04
2023-04-02T02:34:24.369Z,82.06
2023-04-02T02:36:48.384Z,82.07
2023-04-02T02:38:11.212Z,82.08
2023-04-02T02:40:31.808Z,82.01
2023-04-02T02:41:40.469Z,82.07
2023-04-02T02:44:01.435Z,81.96
2023-04-02T02:45:08.152Z,82.12
2023-04-02T02:46:14.206Z,82.07
2023-04-02T02:47:20.143Z,82.03
2023-04-02T02:48:26.274Z,82.02
2023-04-02T02:50:41.241Z,81.96
2023-04-02T02:53:05.700Z,82.12
2023-04-02T02:54:08.716Z,82.31
2023-04-02T02:56:28.832Z,82.27
2023-04-02T02:57:34.865Z,82.40
2023-04-02T02:58:37.863Z,82.42
2023-04-02T02:59:42.937Z,82.41
2023-04-02T03:00:46.055Z,82.38
2023-04-02T03:01:49.427Z,82.42
2023-04-02T03:02:55.788Z,82.35
2023-04-02T03:04:00.362Z,82.30
2023-04-02T03:05:05.405Z,82.21
2023-04-02T03:06:11.883Z,82.22
2023-04-02T03:07:16.201Z,82.22
2023-04-02T03:08:22.239Z,82.26
2023-04-02T03:09:40.086Z,82.27
2023-04-02T03:10:52.177Z,82.25
2023-04-02T03:12:04.055Z,82.22
2023-04-02T03:14:34.000Z,82.23
2023-04-02T03:17:22.565Z,82.22
2023-04-02T03:18:32.214Z,82.31
2023-04-02T03:19:47.175Z,82.43
2023-04-02T03:20:53.068Z,82.38
2023-04-02T03:22:04.970Z,82.28
2023-04-02T03:23:34.081Z,82.23
2023-04-02T03:24:55.502Z,82.29
2023-04-02T03:26:13.376Z,82.25
2023-04-02T03:27:22.991Z,82.21
2023-04-02T03:29:43.591Z,82.33
2023-04-02T03:30:56.008Z,82.41
2023-04-02T03:32:10.985Z,82.44
2023-04-02T03:34:34.982Z,82.34
2023-04-02T03:35:41.287Z,82.39
2023-04-02T03:36:50.435Z,82.44
2023-04-02T03:38:02.545Z,82.43
2023-04-02T03:40:41.232Z,82.37
2023-04-02T03:41:47.920Z,82.39
2023-04-02T03:43:02.099Z,82.40
2023-04-02T03:44:08.067Z,82.38
2023-04-02T03:45:15.901Z,82.33
2023-04-02T03:46:30.721Z,82.30
2023-04-02T03:50:54.055Z,82.32
2023-04-02T03:52:12.035Z,82.46
2023-04-02T03:53:14.891Z,82.23
2023-04-02T03:54:17.717Z,82.13
2023-04-02T03:55:29.982Z,82.12
2023-04-02T03:56:35.893Z,82.09
2023-04-02T03:57:41.884Z,82.17
2023-04-02T03:58:48.181Z,82.27
2023-04-02T04:00:03.362Z,82.26
2023-04-02T04:02:46.645Z,82.17
2023-04-02T04:03:59.320Z,82.29
2023-04-02T04:05:04.954Z,82.35
2023-04-02T04:06:18.008Z,82.39
2023-04-02T04:07:33.987Z,82.30
2023-04-02T04:08:52.129Z,82.28
2023-04-02T04:09:56.259Z,82.34
2023-04-02T04:11:02.281Z,82.36
2023-04-02T04:12:11.024Z,82.35
2023-04-02T04:13:16.699Z,82.35
2023-04-02T04:14:22.571Z,82.34
2023-04-02T04:15:28.371Z,82.41
2023-04-02T04:16:49.415Z,82.41
2023-04-02T04:18:10.419Z,82.44
2023-04-02T04:19:18.218Z,82.37
2023-04-02T04:20:30.240Z,82.34
2023-04-02T04:21:32.578Z,82.35
2023-04-02T04:22:36.876Z,82.38
2023-04-02T04:23:47.067Z,82.33
2023-04-02T04:24:50.489Z,82.39
2023-04-02T04:25:58.673Z,82.44
2023-04-02T04:28:28.196Z,82.51
2023-04-02T04:29:53.071Z,82.64
2023-04-02T04:31:04.716Z,82.62
2023-04-02T04:33:34.216Z,82.56
2023-04-02T04:34:45.198Z,82.68
2023-04-02T04:35:54.773Z,82.67
2023-04-02T04:37:01.018Z,82.76
2023-04-02T04:39:43.365Z,82.84
2023-04-02T04:40:52.465Z,82.90
2023-04-02T04:41:59.619Z,82.95
2023-04-02T04:44:18.119Z,82.97
2023-04-02T04:47:13.387Z,82.85
2023-04-02T04:48:27.359Z,82.81
2023-04-02T04:50:56.855Z,82.76
2023-04-02T04:52:09.594Z,82.96
2023-04-02T04:53:21.849Z,82.94
2023-04-02T04:54:27.463Z,82.85
2023-04-02T04:55:39.886Z,82.86
2023-04-02T04:57:58.823Z,82.90
2023-04-02T04:59:20.146Z,82.89
2023-04-02T05:00:29.075Z,82.83
2023-04-02T05:01:44.350Z,82.80
2023-04-02T05:04:32.152Z,82.76
2023-04-02T05:05:38.600Z,82.88
2023-04-02T05:07:08.121Z,82.89
2023-04-02T05:08:20.582Z,82.87
2023-04-02T05:09:26.552Z,82.75
2023-04-02T05:11:44.860Z,82.72
2023-04-02T05:12:56.894Z,82.73
2023-04-02T05:14:09.592Z,82.81
2023-04-02T05:16:42.481Z,82.62
2023-04-02T05:18:05.023Z,82.52
2023-04-02T05:20:26.872Z,82.34
2023-04-02T05:21:48.673Z,82.36
2023-04-02T05:23:07.098Z,82.43
2023-04-02T05:27:26.788Z,82.31
2023-04-02T05:28:39.915Z,82.25
2023-04-02T05:29:46.753Z,82.18
2023-04-02T05:30:59.834Z,82.07
2023-04-02T05:32:15.457Z,82.04
2023-04-02T05:33:25.133Z,82.11
2023-04-02T05:34:32.074Z,82.25
2023-04-02T05:35:38.406Z,82.25
2023-04-02T05:36:44.857Z,82.17
2023-04-02T05:37:47.973Z,82.27
2023-04-02T05:38:52.808Z,82.15
2023-04-02T05:39:59.903Z,81.97
2023-04-02T05:41:25.523Z,81.94
2023-04-02T05:42:31.816Z,81.97
2023-04-02T05:43:38.703Z,81.83
2023-04-02T05:44:44.909Z,81.77
2023-04-02T05:47:26.542Z,81.80
2023-04-02T05:48:41.350Z,81.86
2023-04-02T05:49:56.534Z,81.79
2023-04-02T05:51:00.473Z,81.82
2023-04-02T05:52:08.121Z,81.87
2023-04-02T05:54:34.553Z,81.86
2023-04-02T05:55:45.730Z,81.87
2023-04-02T05:56:52.868Z,81.66
2023-04-02T05:58:21.269Z,81.63
2023-04-02T05:59:12.569Z,81.74
2023-04-02T06:00:33.766Z,81.80
2023-04-02T06:01:55.181Z,81.80
2023-04-02T06:03:05.493Z,81.79
2023-04-02T06:04:31.073Z,81.79
2023-04-02T06:05:37.919Z,81.88
2023-04-02T06:06:43.890Z,81.75
2023-04-02T06:07:51.189Z,81.69
2023-04-02T06:09:00.233Z,81.62
2023-04-02T06:10:09.578Z,81.77
2023-04-02T06:11:26.447Z,81.88
2023-04-02T06:12:32.956Z,82.04
2023-04-02T06:13:36.387Z,82.13
2023-04-02T06:14:39.722Z,82.10
2023-04-02T06:15:43.052Z,82.05
2023-04-02T06:16:48.171Z,81.90
2023-04-02T06:18:03.442Z,81.92
2023-04-02T06:19:09.509Z,81.96
2023-04-02T06:20:17.125Z,81.80
2023-04-02T06:21:21.609Z,81.82
2023-04-02T06:22:38.350Z,81.85
2023-04-02T06:23:45.219Z,81.85
2023-04-02T06:24:51.096Z,81.86
2023-04-02T06:26:03.411Z,81.72
2023-04-02T06:27:08.381Z,81.76
2023-04-02T06:29:34.399Z,81.93
2023-04-02T06:30:40.752Z,81.95
2023-04-02T06:31:52.435Z,81.92
2023-04-02T06:32:56.161Z,81.81
2023-04-02T06:33:58.471Z,81.78
2023-04-02T06:35:02.691Z,81.75
2023-04-02T06:36:07.977Z,81.78
2023-04-02T06:37:18.777Z,81.79
2023-04-02T06:38:28.326Z,81.78
2023-04-02T06:39:30.950Z,81.67
2023-04-02T06:40:50.986Z,81.46
2023-04-02T06:42:05.092Z,81.39
2023-04-02T06:43:31.192Z,81.43
2023-04-02T06:44:37.219Z,81.47
2023-04-02T06:45:47.900Z,81.55
2023-04-02T06:46:55.852Z,81.70
2023-04-02T06:48:02.238Z,81.81
2023-04-02T06:49:19.466Z,81.92
2023-04-02T06:51:37.952Z,81.86
2023-04-02T06:52:47.064Z,82.03
2023-04-02T06:53:50.614Z,82.06
2023-04-02T06:54:54.484Z,82.00
2023-04-02T06:56:13.443Z,82.17
2023-04-02T06:57:16.387Z,82.09
2023-04-02T06:58:21.160Z,81.87
2023-04-02T06:59:24.534Z,81.86
2023-04-02T07:00:42.669Z,81.91
2023-04-02T07:03:27.901Z,82.06
2023-04-02T07:04:34.288Z,82.12
2023-04-02T07:05:38.491Z,82.12
2023-04-02T07:06:41.897Z,82.33
2023-04-02T07:07:44.570Z,82.35
2023-04-02T07:08:48.205Z,82.16
2023-04-02T07:09:51.220Z,82.01
2023-04-02T07:10:54.457Z,82.00
2023-04-02T07:11:57.076Z,82.06
2023-04-02T07:12:59.812Z,82.08
2023-04-02T07:14:02.371Z,82.15
2023-04-02T07:15:06.314Z,82.11
2023-04-02T07:16:18.775Z,82.09
2023-04-02T07:17:21.240Z,82.11
2023-04-02T07:18:32.123Z,82.19
2023-04-02T07:19:36.245Z,82.26
2023-04-02T07:20:39.273Z,82.10
2023-04-02T07:21:43.446Z,81.89
2023-04-02T07:22:45.717Z,81.88
2023-04-02T07:23:48.863Z,81.75
2023-04-02T07:24:50.958Z,81.64
2023-04-02T07:25:54.514Z,81.74
2023-04-02T07:26:56.660Z,81.81
2023-04-02T07:27:58.828Z,81.92
2023-04-02T07:29:02.052Z,81.90
2023-04-02T07:30:06.011Z,81.93
2023-04-02T07:31:21.552Z,81.75
2023-04-02T07:32:24.132Z,81.59
2023-04-02T07:33:29.181Z,81.63
2023-04-02T07:34:31.203Z,81.81
2023-04-02T07:35:33.567Z,81.69
2023-04-02T07:36:36.777Z,81.61
2023-04-02T07:37:39.245Z,81.60
2023-04-02T07:38:41.516Z,81.50
2023-04-02T07:39:44.754Z,81.67
2023-04-02T07:40:47.174Z,81.62
2023-04-02T07:43:05.189Z,81.71
2023-04-02T07:44:09.172Z,81.98
2023-04-02T07:45:12.025Z,81.98
2023-04-02T07:46:16.103Z,81.96
2023-04-02T07:47:19.534Z,82.04
2023-04-02T07:48:21.772Z,81.97
2023-04-02T07:49:23.997Z,81.94
2023-04-02T07:50:26.168Z,81.92
2023-04-02T07:51:28.524Z,81.84
2023-04-02T07:52:30.617Z,81.93
2023-04-02T07:53:37.057Z,81.97
2023-04-02T07:54:39.744Z,81.95
2023-04-02T07:55:41.778Z,81.97
2023-04-02T07:56:44.668Z,82.10
2023-04-02T07:57:50.019Z,82.17
2023-04-02T07:58:52.224Z,82.07
2023-04-02T07:59:54.882Z,81.96
2023-04-02T08:00:59.235Z,81.79
2023-04-02T08:02:02.632Z,81.81
2023-04-02T08:03:05.473Z,81.98
2023-04-02T08:04:17.017Z,82.11
2023-04-02T08:05:19.564Z,82.11
2023-04-02T08:06:23.594Z,82.06
2023-04-02T08:07:27.621Z,82.05
2023-04-02T08:08:30.810Z,82.09
2023-04-02T08:09:34.100Z,82.11
2023-04-02T08:10:36.757Z,82.08
2023-04-02T08:11:38.913Z,82.02
2023-04-02T08:12:40.983Z,81.89
2023-04-02T08:13:43.737Z,81.74
2023-04-02T08:14:45.892Z,81.58
2023-04-02T08:15:48.340Z,81.58
2023-04-02T08:16:53.653Z,81.59
2023-04-02T08:17:56.460Z,81.81
2023-04-02T08:19:00.959Z,81.82
2023-04-02T08:20:03.741Z,81.91
2023-04-02T08:21:08.354Z,81.89
2023-04-02T08:22:11.531Z,81.83
2023-04-02T08:23:14.838Z,81.79
2023-04-02T08:24:18.530Z,81.88
2023-04-02T08:25:20.676Z,81.85
2023-04-02T08:27:31.826Z,81.65
2023-04-02T08:28:34.773Z,81.65
2023-04-02T08:29:36.969Z,81.69
2023-04-02T08:30:39.586Z,81.62
2023-04-02T08:31:41.693Z,81.75
2023-04-02T08:32:43.960Z,81.87
2023-04-02T08:33:46.639Z,81.97
2023-04-02T08:34:48.911Z,81.91
2023-04-02T08:35:51.569Z,81.89
2023-04-02T08:36:58.180Z,81.89
2023-04-02T08:38:00.351Z,81.92
2023-04-02T08:39:03.754Z,81.98
2023-04-02T08:40:09.692Z,81.94
2023-04-02T08:41:21.717Z,81.90
2023-04-02T08:42:36.112Z,81.75
2023-04-02T08:43:54.152Z,81.57
2023-04-02T08:45:20.847Z,81.39
2023-04-02T08:46:26.107Z,81.12
2023-04-02T08:47:29.750Z,81.08
2023-04-02T08:48:35.140Z,80.99
2023-04-02T08:49:43.390Z,80.99
2023-04-02T08:50:46.561Z,81.14
2023-04-02T08:51:49.377Z,81.14
2023-04-02T08:52:51.733Z,81.13
2023-04-02T08:53:57.897Z,81.05
2023-04-02T08:55:02.207Z,81.10
2023-04-02T08:56:32.574Z,81.06
2023-04-02T08:57:48.542Z,80.98
2023-04-02T08:58:54.342Z,81.16
2023-04-02T09:00:12.199Z,81.42
2023-04-02T09:01:37.844Z,81.70
2023-04-02T09:02:59.847Z,81.60
2023-04-02T09:04:05.642Z,81.52
2023-04-02T09:05:12.801Z,81.67
2023-04-02T09:06:18.704Z,81.75
2023-04-02T09:07:21.011Z,81.63
2023-04-02T09:08:25.612Z,81.56
2023-04-02T09:09:28.448Z,81.53
2023-04-02T09:10:37.069Z,81.47
2023-04-02T09:11:46.234Z,81.63
2023-04-02T09:12:51.502Z,81.71
2023-04-02T09:14:00.320Z,81.63
2023-04-02T09:16:24.198Z,81.52
2023-04-02T09:17:26.936Z,81.38
2023-04-02T09:18:31.567Z,81.12
2023-04-02T09:19:40.453Z,81.06
2023-04-02T09:20:45.007Z,81.18
2023-04-02T09:22:07.509Z,81.11
2023-04-02T09:23:16.711Z,80.99
2023-04-02T09:24:18.819Z,81.02
2023-04-02T09:25:26.168Z,81.04
2023-04-02T09:26:31.166Z,81.07
2023-04-02T09:27:35.658Z,81.17
2023-04-02T09:28:38.365Z,81.39
2023-04-02T09:29:43.577Z,81.49
2023-04-02T09:30:58.855Z,81.34
2023-04-02T09:32:23.462Z,81.32
2023-04-02T09:33:46.215Z,81.40
2023-04-02T09:34:48.872Z,81.50
2023-04-02T09:35:57.231Z,81.49
2023-04-02T09:39:37.467Z,81.82
2023-04-02T09:42:24.852Z,81.85
2023-04-02T09:43:30.723Z,81.99
2023-04-02T09:44:33.653Z,81.92
2023-04-02T09:45:36.288Z,81.79
2023-04-02T09:47:57.630Z,81.84
2023-04-02T09:49:01.531Z,81.85
2023-04-02T09:51:27.631Z,81.96
2023-04-02T09:52:30.329Z,82.15
2023-04-02T09:53:35.784Z,82.24
2023-04-02T09:54:38.198Z,82.25
2023-04-02T09:55:40.268Z,82.19
2023-04-02T09:57:01.594Z,82.01
2023-04-02T09:58:13.362Z,81.90
2023-04-02T09:59:17.807Z,81.93
2023-04-02T10:00:32.160Z,81.96
2023-04-02T10:01:38.613Z,82.02
2023-04-02T10:02:41.271Z,82.01
2023-04-02T10:03:44.051Z,81.97
2023-04-02T10:04:49.479Z,81.96
2023-04-02T10:06:07.204Z,81.91
2023-04-02T10:07:31.344Z,81.86
2023-04-02T10:08:34.824Z,82.01
2023-04-02T10:09:37.632Z,81.95
2023-04-02T10:11:54.913Z,81.59
2023-04-02T10:13:03.841Z,81.56
2023-04-02T10:14:22.404Z,81.40
2023-04-02T10:15:31.076Z,81.26
2023-04-02T10:16:40.955Z,81.14
2023-04-02T10:17:45.423Z,81.16
2023-04-02T10:19:13.284Z,81.12
2023-04-02T10:20:21.858Z,81.06
2023-04-02T10:22:43.970Z,81.27
2023-04-02T10:23:46.766Z,81.69
2023-04-02T10:24:50.522Z,81.71
2023-04-02T10:27:28.182Z,81.65
2023-04-02T10:31:55.891Z,82.05
2023-04-02T10:33:19.977Z,82.11
2023-04-02T10:34:31.729Z,82.03
2023-04-02T10:36:58.855Z,81.79
2023-04-02T10:38:08.086Z,81.79
2023-04-02T10:40:57.071Z,81.79
2023-04-02T10:42:06.091Z,81.83
2023-04-02T10:43:24.698Z,81.90
2023-04-02T10:44:56.505Z,81.98
2023-04-02T10:47:23.516Z,81.96
2023-04-02T10:48:44.438Z,81.95
2023-04-02T10:50:24.144Z,81.91
2023-04-02T10:51:39.297Z,81.82
2023-04-02T10:54:10.024Z,81.32
2023-04-02T10:56:44.015Z,80.92
2023-04-02T10:57:44.312Z,81.03
2023-04-02T10:58:57.454Z,81.04
2023-04-02T11:00:04.067Z,81.06
2023-04-02T11:01:12.627Z,81.01
2023-04-02T11:02:50.839Z,81.04
2023-04-02T11:03:58.126Z,80.89
2023-04-02T11:06:22.386Z,80.81
2023-04-02T11:07:28.268Z,80.93
2023-04-02T11:08:43.391Z,80.94
2023-04-02T11:09:49.705Z,81.16
2023-04-02T11:12:09.960Z,81.18
2023-04-02T11:13:34.772Z,81.31
2023-04-02T11:14:37.425Z,81.64
2023-04-02T11:15:40.399Z,81.83
2023-04-02T11:16:45.096Z,81.95
2023-04-02T11:17:48.306Z,81.98
2023-04-02T11:19:17.603Z,81.92
2023-04-02T11:20:43.175Z,81.84
2023-04-02T11:23:18.421Z,81.68
2023-04-02T11:24:33.776Z,81.64
2023-04-02T11:25:36.277Z,81.51
2023-04-02T11:26:41.487Z,81.58
2023-04-02T11:27:44.288Z,81.66
2023-04-02T11:28:48.134Z,81.77
2023-04-02T11:30:09.253Z,81.75
2023-04-02T11:31:15.163Z,81.77
2023-04-02T11:32:24.062Z,81.51
2023-04-02T11:33:39.346Z,81.47
2023-04-02T11:36:01.317Z,81.52
2023-04-02T11:37:07.789Z,81.57
2023-04-02T11:38:13.534Z,81.56
2023-04-02T11:39:46.634Z,81.23
2023-04-02T11:40:54.446Z,81.21
2023-04-02T11:42:03.453Z,81.03
2023-04-02T11:43:35.472Z,81.01
2023-04-02T11:44:37.799Z,81.19
2023-04-02T11:45:52.874Z,81.13
2023-04-02T11:46:52.931Z,81.14
2023-04-02T11:48:24.226Z,81.09
2023-04-02T11:49:35.244Z,81.20
2023-04-02T11:50:40.264Z,81.03
2023-04-02T11:51:49.691Z,80.85
2023-04-02T11:52:56.837Z,80.94
2023-04-02T11:53:59.594Z,81.02
2023-04-02T11:58:05.990Z,80.87
2023-04-02T12:01:02.942Z,80.92
2023-04-02T12:02:15.015Z,80.87
2023-04-02T12:03:30.048Z,80.69
2023-04-02T12:06:25.058Z,80.60
2023-04-02T12:07:47.259Z,80.80
2023-04-02T12:09:11.560Z,80.81
2023-04-02T12:10:18.827Z,80.68
2023-04-02T12:11:30.350Z,80.68
2023-04-02T12:12:39.075Z,80.66
2023-04-02T12:13:44.815Z,80.69
2023-04-02T12:14:48.371Z,80.61
2023-04-02T12:15:52.077Z,80.59
2023-04-02T12:16:55.075Z,80.52
2023-04-02T12:18:13.051Z,80.44
2023-04-02T12:19:16.769Z,80.31
2023-04-02T12:20:22.789Z,80.21
2023-04-02T12:21:28.607Z,80.27
2023-04-02T12:22:32.823Z,80.34
2023-04-02T12:23:36.541Z,80.27
2023-04-02T12:24:41.621Z,80.21
2023-04-02T12:25:47.573Z,80.25
2023-04-02T12:28:17.728Z,80.43
2023-04-02T12:29:28.245Z,80.51
2023-04-02T12:30:32.289Z,80.34
2023-04-02T12:31:34.542Z,80.30
2023-04-02T12:32:36.599Z,80.34
2023-04-02T12:33:40.700Z,80.41
2023-04-02T12:34:45.363Z,80.46
2023-04-02T12:35:50.274Z,80.34
2023-04-02T12:38:20.749Z,80.47
2023-04-02T12:39:25.825Z,80.71
2023-04-02T12:40:28.672Z,80.67
2023-04-02T12:41:34.261Z,80.81
2023-04-02T12:42:37.294Z,80.97
2023-04-02T12:43:40.068Z,81.11
2023-04-02T12:44:45.977Z,81.26
2023-04-02T12:45:53.796Z,81.16
2023-04-02T12:46:58.213Z,81.17
2023-04-02T12:48:04.164Z,81.17
2023-04-02T12:50:20.676Z,80.86
2023-04-02T12:51:23.469Z,81.11
2023-04-02T12:52:28.555Z,81.08
2023-04-02T12:53:37.123Z,81.08
2023-04-02T12:54:51.662Z,81.03
2023-04-02T12:55:55.154Z,80.96
2023-04-02T12:57:17.796Z,80.83
2023-04-02T12:58:32.080Z,80.73
2023-04-02T12:59:36.325Z,80.69
2023-04-02T13:00:39.260Z,80.58
2023-04-02T13:01:46.188Z,80.67
2023-04-02T13:02:51.274Z,80.76
2023-04-02T13:05:12.668Z,80.96
2023-04-02T13:06:21.498Z,81.21
2023-04-02T13:07:25.601Z,81.31
2023-04-02T13:08:30.800Z,81.30
2023-04-02T13:09:42.700Z,81.22
2023-04-02T13:10:46.676Z,81.24
2023-04-02T13:11:48.875Z,81.44
2023-04-02T13:13:02.414Z,81.46
2023-04-02T13:14:08.288Z,81.40
2023-04-02T13:16:35.072Z,81.13
2023-04-02T13:18:56.647Z,80.94
2023-04-02T13:20:03.022Z,80.90
2023-04-02T13:21:20.065Z,80.68
2023-04-02T13:22:32.083Z,80.64
2023-04-02T13:23:36.392Z,80.59
2023-04-02T13:24:38.680Z,80.51
2023-04-02T13:25:41.133Z,80.62
2023-04-02T13:26:43.424Z,80.67
2023-04-02T13:27:46.178Z,80.63
2023-04-02T13:29:04.065Z,80.62
2023-04-02T13:31:18.846Z,80.43
2023-04-02T13:32:20.962Z,80.66
2023-04-02T13:33:23.532Z,80.59
2023-04-02T13:34:26.865Z,80.36
2023-04-02T13:35:29.002Z,80.31
2023-04-02T13:36:31.245Z,80.21
2023-04-02T13:37:33.448Z,80.27
2023-04-02T13:38:35.459Z,80.34
2023-04-02T13:39:38.466Z,80.24
2023-04-02T13:40:41.297Z,80.27
2023-04-02T13:42:00.174Z,80.28
2023-04-02T13:43:04.049Z,80.27
2023-04-02T13:44:07.525Z,80.21
2023-04-02T13:45:25.816Z,80.07
2023-04-02T13:46:34.634Z,79.96
2023-04-02T13:47:39.144Z,79.84
2023-04-02T13:48:41.239Z,79.77
2023-04-02T13:49:43.852Z,79.82
2023-04-02T13:50:46.153Z,79.91
2023-04-02T13:51:51.516Z,79.98
2023-04-02T13:52:57.230Z,79.97
2023-04-02T13:53:59.561Z,79.80
2023-04-02T13:55:03.020Z,79.80
2023-04-02T13:56:06.223Z,79.87
2023-04-02T13:57:09.327Z,79.89
2023-04-02T13:58:12.132Z,79.95
2023-04-02T13:59:14.469Z,79.92
2023-04-02T14:00:17.686Z,79.89
2023-04-02T14:01:22.981Z,79.89
2023-04-02T14:02:25.495Z,79.89
2023-04-02T14:03:29.157Z,79.67
2023-04-02T14:04:35.005Z,79.66
2023-04-02T14:06:10.586Z,79.78
2023-04-02T14:07:28.662Z,79.99
2023-04-02T14:08:35.461Z,79.97
2023-04-02T14:09:57.759Z,79.98
2023-04-02T14:12:47.773Z,79.81
2023-04-02T14:14:11.822Z,79.85
2023-04-02T14:15:21.077Z,79.61
2023-04-02T14:18:03.997Z,79.34
2023-04-02T14:19:20.294Z,79.54
2023-04-02T14:20:46.579Z,79.56
2023-04-02T14:22:09.618Z,79.56
2023-04-02T14:23:25.242Z,79.58
2023-04-02T14:24:36.784Z,79.57
2023-04-02T14:26:07.487Z,79.56
2023-04-02T14:27:13.337Z,79.55
2023-04-02T14:28:19.595Z,79.46
2023-04-02T14:29:43.704Z,79.43
2023-04-02T14:31:19.005Z,79.42
2023-04-02T14:34:13.927Z,79.21
2023-04-02T14:35:38.166Z,79.32
2023-04-02T14:36:52.926Z,79.30
2023-04-02T14:38:26.386Z,79.29
2023-04-02T14:39:38.615Z,79.27
2023-04-02T14:40:56.348Z,79.17
2023-04-02T14:42:03.153Z,79.21
2023-04-02T14:43:11.659Z,79.06
2023-04-02T14:44:17.242Z,79.07
2023-04-02T14:45:29.968Z,79.00
2023-04-02T14:46:37.475Z,78.85
2023-04-02T14:47:46.686Z,78.97
2023-04-02T14:48:58.265Z,79.01
2023-04-02T14:50:04.078Z,79.04
2023-04-02T14:51:19.337Z,79.06
2023-04-02T14:52:25.115Z,79.14
2023-04-02T14:53:34.937Z,78.97
2023-04-02T14:54:55.799Z,78.96
2023-04-02T14:56:00.945Z,79.01
2023-04-02T14:58:29.847Z,79.11
2023-04-02T14:59:48.493Z,79.13
2023-04-02T15:01:16.436Z,79.08
2023-04-02T15:02:40.417Z,79.02
2023-04-02T15:04:19.924Z,79.02
2023-04-02T15:06:50.029Z,79.09
2023-04-02T15:08:02.152Z,79.18
2023-04-02T15:09:17.415Z,79.19
2023-04-02T15:10:32.040Z,79.28
2023-04-02T15:11:46.934Z,79.25
2023-04-02T15:12:52.366Z,79.26
2023-04-02T15:14:22.976Z,79.33
2023-04-02T15:15:39.995Z,79.27
2023-04-02T15:16:38.196Z,79.20
2023-04-02T15:17:40.866Z,79.21
2023-04-02T15:18:43.028Z,79.30
2023-04-02T15:19:46.679Z,79.30
2023-04-02T15:21:09.147Z,79.38
2023-04-02T15:22:14.925Z,79.43
2023-04-02T15:25:08.988Z,79.41
2023-04-02T15:26:20.644Z,79.64
2023-04-02T15:27:30.641Z,79.50
2023-04-02T15:29:51.811Z,79.33
2023-04-02T15:30:58.327Z,79.49
2023-04-02T15:33:47.988Z,79.44
2023-04-02T15:35:00.251Z,79.49
2023-04-02T15:36:18.257Z,79.46
2023-04-02T15:37:30.721Z,79.46
2023-04-02T15:38:40.015Z,79.44
2023-04-02T15:39:58.373Z,79.40
2023-04-02T15:41:13.118Z,79.41
2023-04-02T15:42:27.984Z,79.33
2023-04-02T15:43:45.278Z,79.37
2023-04-02T15:45:24.861Z,79.45
2023-04-02T15:46:37.327Z,79.47
2023-04-02T15:47:45.890Z,79.51
2023-04-02T15:49:06.752Z,79.47
2023-04-02T15:50:34.669Z,79.42
2023-04-02T15:51:41.352Z,79.44
2023-04-02T15:53:07.585Z,79.49
2023-04-02T15:54:28.319Z,79.58
2023-04-02T15:55:34.134Z,79.61
2023-04-02T15:56:40.440Z,79.58
2023-04-02T15:58:02.512Z,79.59
2023-04-02T15:59:23.378Z,79.65
2023-04-02T16:00:31.452Z,79.63
2023-04-02T16:01:40.686Z,79.57
2023-04-02T16:03:05.500Z,79.49
2023-04-02T16:04:19.784Z,79.50
2023-04-02T16:05:43.391Z,79.54
2023-04-02T16:07:02.292Z,79.62
2023-04-02T16:08:32.733Z,79.65
2023-04-02T16:09:47.566Z,79.62
2023-04-02T16:10:49.869Z,79.61
2023-04-02T16:12:02.479Z,79.67
2023-04-02T16:14:31.635Z,79.61
2023-04-02T16:15:43.265Z,79.69
2023-04-02T16:16:49.473Z,79.70
2023-04-02T16:17:55.284Z,79.63
2023-04-02T16:19:34.914Z,79.62
2023-04-02T16:22:17.924Z,79.35
2023-04-02T16:24:33.258Z,79.37
2023-04-02T16:25:39.157Z,79.37
2023-04-02T16:26:45.090Z,79.35
2023-04-02T16:28:00.294Z,79.27
2023-04-02T16:29:21.393Z,78.99
2023-04-02T16:30:45.848Z,78.68
2023-04-02T16:32:03.803Z,78.36
2023-04-02T16:33:16.197Z,77.98
2023-04-02T16:34:31.150Z,77.71
2023-04-02T16:35:55.326Z,77.46
2023-04-02T16:37:10.401Z,77.49
2023-04-02T16:38:50.071Z,77.39
2023-04-02T16:40:08.000Z,77.32
2023-04-02T16:41:30.408Z,77.03
2023-04-02T16:42:38.268Z,76.72
2023-04-02T16:43:53.328Z,76.59
2023-04-02T16:45:19.400Z,76.35
2023-04-02T16:46:38.724Z,76.31
2023-04-02T16:47:51.766Z,75.99
2023-04-02T16:49:13.020Z,75.93
2023-04-02T16:50:29.498Z,75.88
2023-04-02T16:51:57.821Z,75.36